Nearby METAR Reports

 

KHAO - Hamilton, Ohio, USA
Distance from station: WSW 7mi, 11km
Updated: 07,01/2022 9:53pm
Few Clouds
Few Clouds
 Wind from NW
Wind: NW 8 mph , 13 km/h
Temperature: 75°F , 24°C
Dew Point: 70°F , 21°C
Humidity: 83%
Barometer: 29.99 inHg , 1015.6 hPa
Clouds: Few Clouds
Visibility: 10 miles , 16 km
Cloud details: Few Clouds 3500 ft
Few Clouds 12000 ft
2022/07/02 01:53 KHAO 020153Z AUTO 31007KT 10SM FEW035 FEW120 24/21 A2999 RMK AO2 LTG DSNT N SLP151 T02440211
KI68 - Lebanon, Ohio, USA
Distance from station: ENE 9mi, 15km
Updated: 07,01/2022 9:55pm
Partly cloudy
Partly cloudy
 Wind from N
Wind: N 7 mph , 11 km/h
Temperature: 77°F , 25°C
Dew Point: 68°F , 20°C
Humidity: 74%
Barometer: 30.00 inHg , 1015.9 hPa
Clouds: Partly cloudy
Visibility: 10 miles , 16 km
Cloud details: Partly cloudy 3800 ft
Partly cloudy 4600 ft
Partly cloudy 6000 ft
2022/07/02 01:55 KI68 020155Z AUTO 35006KT 10SM SCT038 SCT046 SCT060 25/20 A3000 RMK AO1 T02470202
KMWO - Middletown/Hook, Ohio, USA
Distance from station: N 10mi, 16km
Updated: 07,01/2022 9:55pm
Light rain, Mostly cloudy
Light rain, Mostly cloudy
 Wind from NNW
Wind: NNW 7 mph , 11 km/h
Temperature: 77°F , 25°C
Dew Point: 68°F , 20°C
Humidity: 74%
Barometer: 29.99 inHg , 1015.6 hPa
Summary: Light rain
Clouds: Mostly cloudy
Visibility: 10 miles , 16 km
Cloud details: Partly cloudy 4800 ft
Partly cloudy 7000 ft
Mostly cloudy 11000 ft
2022/07/02 01:55 KMWO 020155Z AUTO 33006KT 10SM -RA SCT048 SCT070 BKN110 25/20 A2999 RMK AO2 LTG DSNT N AND NE T02530198
 
KMGY - Dayton, Ohio, USA
Distance from station: NNE 17mi, 27km
Updated: 07,01/2022 9:53pm
Light rain, Mostly cloudy
Light rain, Mostly cloudy
 Wind from N
Wind: N 12 mph , 19 km/h
Temperature: 75°F , 24°C
Dew Point: 68°F , 20°C
Humidity: 78%
Barometer: 29.99 inHg , 1015.6 hPa
Summary: Light rain
Clouds: Mostly cloudy
Visibility: 10 miles , 16 km
Cloud details: Partly cloudy 4000 ft
Mostly cloudy 4900 ft
Mostly cloudy 7500 ft
2022/07/02 01:53 KMGY 020153Z AUTO 35010KT 10SM -RA SCT040 BKN049 BKN075 24/20 A2999 RMK AO2 LTG DSNT E AND NW RAB45 TSB0057E35 SLP148 P0000 T02390200
KLUK - Cincinnat/Lunken, Ohio, USA
Distance from station: S 20mi, 33km
Updated: 07,01/2022 9:53pm
Clear
Clear
 Wind from W
Wind: W 5 mph , 7 km/h
Temperature: 82°F , 28°C
Heat Index: 86°F , 30°C
Dew Point: 70°F , 21°C
Humidity: 66%
Barometer: 29.97 inHg , 1014.9 hPa
Clouds: Clear
Visibility: 10 miles , 16 km
2022/07/02 01:53 KLUK 020153Z 26004KT 10SM CLR 28/21 A2997 RMK AO2 SLP141 T02830211
KI67 - Harrison, Ohio, USA
Distance from station: WSW 22mi, 35km
Updated: 07,01/2022 9:55pm
Clear
Clear
 Wind from calm
Wind: Calm
Temperature: 77°F , 25°C
Dew Point: 61°F , 16°C
Humidity: 57%
Barometer: 29.98 inHg , 1015.2 hPa
Clouds: Clear
Visibility: 10 miles , 16 km
2022/07/02 01:55 KI67 020155Z AUTO 00000KT 10SM CLR 25/16 A2998 RMK AO1
 
KOXD - Oxford, Ohio, USA
Distance from station: WNW 22mi, 35km
Updated: 07,01/2022 9:55pm
Light rain, Overcast
Light rain, Overcast
 Wind from NW
Wind: NW 6 mph , 9 km/h
Temperature: 77°F , 25°C
Dew Point: 75°F , 24°C
Humidity: 94%
Barometer: 29.99 inHg , 1015.6 hPa
Summary: Light rain
Clouds: Overcast
Visibility: 10 miles , 16 km
Cloud details: Partly cloudy 5500 ft
Mostly cloudy 9000 ft
Overcast 12000 ft
2022/07/02 01:55 KOXD 020155Z AUTO 32005KT 10SM -RA SCT055 BKN090 OVC120 25/24 A2999 RMK AO2 T02450235
KI69 - Batavia, Ohio, USA
Distance from station: SSE 23mi, 38km
Updated: 07,01/2022 9:55pm
Clear
Clear
 Wind from W
Wind: W 3 mph , 6 km/h
Temperature: 84°F , 29°C
Heat Index: 89°F , 32°C
Dew Point: 72°F , 22°C
Humidity: 66%
Barometer: 30.00 inHg , 1015.9 hPa
Clouds: Clear
Visibility: 10 miles , 16 km
2022/07/02 01:55 KI69 020155Z AUTO 26003KT 10SM CLR 29/22 A3000 RMK AO2 T02860217
KCVG - Covington, Kentucky, USA
Distance from station: SSW 28mi, 45km
Updated: 07,01/2022 9:52pm
Mostly cloudy
Mostly cloudy
 Wind from W
Wind: W 5 mph , 7 km/h
Temperature: 81°F , 27°C
Heat Index: 85°F , 29°C
Dew Point: 72°F , 22°C
Humidity: 74%
Barometer: 29.98 inHg , 1015.2 hPa
Clouds: Mostly cloudy
Visibility: 10 miles , 16 km
Cloud details: Few Clouds 12000 ft
Mostly cloudy 25000 ft
2022/07/02 01:52 KCVG 020152Z 26004KT 10SM FEW120 BKN250 27/22 A2998 RMK AO2 SLP139 T02670222
 
KI19 - Dayton-Jackson, Ohio, USA
Distance from station: NE 29mi, 47km
Updated: 07,01/2022 9:55pm
Thunderstorm, Mostly cloudy
Thunderstorm, Mostly cloudy
 Wind from WNW
Wind: WNW 5 mph , 7 km/h
Temperature: 70°F , 21°C
Dew Point: 68°F , 20°C
Humidity: 94%
Barometer: 30.02 inHg , 1016.6 hPa
Summary: Thunderstorm
Clouds: Mostly cloudy
Visibility: 10 miles , 16 km
Cloud details: Partly cloudy 2200 ft
Partly cloudy 5000 ft
Mostly cloudy 7500 ft
2022/07/02 01:55 KI19 020155Z AUTO 30004KT 10SM TS SCT022 SCT050 BKN075 21/20 A3002 RMK AO2 LTG DSNT W THRU E T02130197 P0020
KILN - Wilmington, Ohio, USA
Distance from station: E 32mi, 52km
Updated: 07,01/2022 9:54pm
Mostly cloudy
Mostly cloudy
 Wind from W
Wind: W 8 mph , 13 km/h
Temperature: 82°F , 28°C
Heat Index: 86°F , 30°C
Dew Point: 70°F , 21°C
Humidity: 66%
Barometer: 29.99 inHg , 1015.6 hPa
Clouds: Mostly cloudy
Visibility: 10 miles , 16 km
Cloud details: Partly cloudy 7000 ft
Mostly cloudy 10000 ft
2022/07/02 01:54 KILN 020154Z AUTO 27007KT 10SM SCT070 BKN100 28/21 A2999 RMK AO2 LTG DSNT N AND NE SLP137 T02830206
KRID - Richmond, Indiana, USA
Distance from station: NW 34mi, 55km
Updated: 07,01/2022 10:15pm
Clear
Clear
 Wind from calm
Wind: Calm
Temperature: 70°F , 21°C
Dew Point: 68°F , 20°C
Humidity: 94%
Barometer: 30.00 inHg , 1015.9 hPa
Clouds: Clear
Visibility: 10 miles , 16 km
2022/07/02 02:15 KRID 020215Z AUTO 00000KT 10SM CLR 21/20 A3000 RMK AO2
 
KFFO - Wright Paterson, Ohio, USA
Distance from station: NNE 35mi, 57km
Updated: 07,01/2022 9:58pm
Light thunderstorm, Rain, Overcast
Light thunderstorm, Rain, Overcast
 Wind from SSW
Wind: SSW 10 mph , 17 km/h
Temperature: 72°F , 22°C
Dew Point: 66°F , 19°C
Humidity: 83%
Barometer: 29.97 inHg , 1014.9 hPa
Summary: Light thunderstorm, Rain
Clouds: Overcast
Visibility: 7 miles , 11 km
Cloud details: Mostly cloudy 6000 ft
Overcast 8000 ft
2022/07/02 01:58 KFFO 020158Z 19909KT 7SM -TSRA BKN060 OVC080 22/19 A2997 RMK AO2A SLP145 P0001 T02240192
KDAY - Dayton, Ohio, USA
Distance from station: NNE 36mi, 58km
Updated: 07,01/2022 9:56pm
Thunderstorm, Overcast
Thunderstorm, Overcast
 Wind from SSW
Wind: SSW 7 mph , 11 km/h
Temperature: 75°F , 24°C
Dew Point: 68°F , 20°C
Humidity: 78%
Barometer: 30.01 inHg , 1016.3 hPa
Summary: Thunderstorm
Clouds: Overcast
Visibility: 10 miles , 16 km
Cloud details: Mostly cloudy 5000 ft
Overcast 7000 ft
2022/07/02 01:56 KDAY 020156Z 20006KT 10SM TS BKN050CB OVC070 24/20 A3001 RMK AO2 LTG DSNT E-SW TSB17 SLP153 OCNL LTGICCC SW-W TS SW-W MOVE E T02440200
KSGH - Springfield Muni, Ohio, USA
Distance from station: NE 43mi, 69km
Updated: 07,01/2022 10:06pm
Rain, Overcast
Rain, Overcast
 Wind from W
Wind: W 15 mph , 24 km/h, Gust: 21 mph , 33 km/h
Temperature: 72°F , 22°C
Barometer: 30.01 inHg , 1016.3 hPa
Summary: Rain
Clouds: Overcast
Visibility: 10 miles , 16 km
Cloud details: Mostly cloudy 6000 ft
Overcast 8000 ft
2022/07/02 02:06 KSGH 020206Z AUTO 26013G18KT 10SM RA BKN060 OVC080 22/ A3001 RMK AO2 LTG DSNT E AND S TSE00 PNO $
 
KK62 - Falmouth, Kentucky, USA
Distance from station: S 48mi, 77km
Updated: 07,01/2022 9:55pm
Clear
Clear
 Wind from calm
Wind: Calm
Temperature: 81°F , 27°C
Heat Index: 85°F , 29°C
Dew Point: 70°F , 21°C
Humidity: 70%
Barometer: 29.99 inHg , 1015.6 hPa
Clouds: Clear
Visibility: 10 miles , 16 km
2022/07/02 01:55 KK62 020155Z AUTO 00000KT 10SM CLR 27/21 A2999 RMK AO2
KI23 - Washington Court, Ohio, USA
Distance from station: ENE 54mi, 86km
Updated: 07,01/2022 9:55pm
Partly cloudy
Partly cloudy
 Wind from NW
Wind: NW 15 mph , 24 km/h
Temperature: 81°F , 27°C
Heat Index: 83°F , 28°C
Dew Point: 64°F , 18°C
Humidity: 58%
Barometer: 29.99 inHg , 1015.6 hPa
Clouds: Partly cloudy
Visibility: 10 miles , 16 km
Cloud details: Partly cloudy 3800 ft
Partly cloudy 4400 ft
Partly cloudy 5000 ft
2022/07/02 01:55 KI23 020155Z AUTO 32013KT 10SM SCT038 SCT044 SCT050 27/18 A2999 RMK AO1
KVES - Versailles, Ohio, USA
Distance from station: N 56mi, 90km
Updated: 07,01/2022 9:50pm
Clear
Clear
 Wind from calm
Wind: Calm
Temperature: 75°F , 24°C
Dew Point: 63°F , 17°C
Humidity: 65%
Barometer: 29.99 inHg , 1015.6 hPa
Clouds: Clear
Visibility: 10 miles , 16 km
2022/07/02 01:50 KVES 020150Z AUTO 00000KT 10SM CLR 24/17 A2999 RMK AO2
 
KI74 - Urbana, Ohio, USA
Distance from station: NNE 62mi, 99km
Updated: 07,01/2022 9:55pm
Overcast
Overcast
 Wind from calm
Wind: Calm
Temperature: 75°F , 24°C
Dew Point: 66°F , 19°C
Humidity: 74%
Barometer: 29.99 inHg , 1015.6 hPa
Clouds: Overcast
Visibility: 10 miles , 16 km
Cloud details: Mostly cloudy 6500 ft
Overcast 9000 ft
2022/07/02 01:55 KI74 020155Z AUTO 00000KT 10SM BKN065 OVC090 24/19 A2999 RMK AO2
KUYF - London, Ohio, USA
Distance from station: NE 62mi, 100km
Updated: 07,01/2022 9:55pm
Mostly cloudy
Mostly cloudy
 Wind from W
Wind: W 5 mph , 7 km/h
Temperature: 77°F , 25°C
Dew Point: 61°F , 16°C
Humidity: 57%
Barometer: 30.00 inHg , 1015.9 hPa
Clouds: Mostly cloudy
Visibility: 10 miles , 16 km
Cloud details: Partly cloudy 10000 ft
Mostly cloudy 12000 ft
2022/07/02 01:55 KUYF 020155Z AUTO 28004KT 10SM SCT100 BKN120 25/16 A3000 RMK AO2 LTG DSNT SW